sensor_id;sensor_type;location;lat;lon;timestamp;temperature;humidity
23147;DHT22;11742;53.532;-1.478;2023-04-03T00:02:14;11.80;74.00
23147;DHT22;11742;53.532;-1.478;2023-04-03T00:05:02;11.80;73.90
23147;DHT22;11742;53.532;-1.478;2023-04-03T00:07:46;11.70;73.90
23147;DHT22;11742;53.532;-1.478;2023-04-03T00:10:31;11.70;73.90
23147;DHT22;11742;53.532;-1.478;2023-04-03T00:13:15;11.60;73.90
23147;DHT22;11742;53.532;-1.478;2023-04-03T00:15:59;11.60;73.90
23147;DHT22;11742;53.532;-1.478;2023-04-03T00:18:43;11.50;73.90
23147;DHT22;11742;53.532;-1.478;2023-04-03T00:21:27;11.50;73.90
23147;DHT22;11742;53.532;-1.478;2023-04-03T00:24:12;11.50;73.90
23147;DHT22;11742;53.532;-1.478;2023-04-03T00:26:56;11.40;73.90
23147;DHT22;11742;53.532;-1.478;2023-04-03T00:29:40;11.40;73.90
23147;DHT22;11742;53.532;-1.478;2023-04-03T00:32:24;11.30;73.80
23147;DHT22;11742;53.532;-1.478;2023-04-03T00:35:08;11.30;73.80
23147;DHT22;11742;53.532;-1.478;2023-04-03T00:37:54;11.20;73.90
23147;DHT22;11742;53.532;-1.478;2023-04-03T00:40:39;11.20;73.90
23147;DHT22;11742;53.532;-1.478;2023-04-03T00:43:25;11.10;73.90
23147;DHT22;11742;53.532;-1.478;2023-04-03T00:46:10;11.10;73.90
23147;DHT22;11742;53.532;-1.478;2023-04-03T00:48:54;11.00;73.90
23147;DHT22;11742;53.532;-1.478;2023-04-03T00:51:39;11.00;73.90
23147;DHT22;11742;53.532;-1.478;2023-04-03T00:54:23;10.90;73.90
23147;DHT22;11742;53.532;-1.478;2023-04-03T00:57:07;10.90;73.90
23147;DHT22;11742;53.532;-1.478;2023-04-03T00:59:55;10.90;73.90
23147;DHT22;11742;53.532;-1.478;2023-04-03T01:02:41;10.80;73.90
23147;DHT22;11742;53.532;-1.478;2023-04-03T01:05:25;10.80;73.90
23147;DHT22;11742;53.532;-1.478;2023-04-03T01:08:10;10.70;73.80
23147;DHT22;11742;53.532;-1.478;2023-04-03T01:10:54;10.70;73.90
23147;DHT22;11742;53.532;-1.478;2023-04-03T01:13:38;10.60;73.80
23147;DHT22;11742;53.532;-1.478;2023-04-03T01:16:24;10.60;73.80
23147;DHT22;11742;53.532;-1.478;2023-04-03T01:19:10;10.60;73.80
23147;DHT22;11742;53.532;-1.478;2023-04-03T01:24:44;10.40;73.80
23147;DHT22;11742;53.532;-1.478;2023-04-03T01:27:30;10.40;73.80
23147;DHT22;11742;53.532;-1.478;2023-04-03T01:30:14;10.30;73.80
23147;DHT22;11742;53.532;-1.478;2023-04-03T01:33:00;10.30;73.80
23147;DHT22;11742;53.532;-1.478;2023-04-03T01:35:44;10.30;73.80
23147;DHT22;11742;53.532;-1.478;2023-04-03T01:38:29;10.20;73.80
23147;DHT22;11742;53.532;-1.478;2023-04-03T01:41:13;10.20;73.80
23147;DHT22;11742;53.532;-1.478;2023-04-03T01:43:58;10.20;73.80
23147;DHT22;11742;53.532;-1.478;2023-04-03T01:46:42;10.10;73.80
23147;DHT22;11742;53.532;-1.478;2023-04-03T01:49:26;10.10;73.80
23147;DHT22;11742;53.532;-1.478;2023-04-03T01:52:11;10.00;73.80
23147;DHT22;11742;53.532;-1.478;2023-04-03T01:54:55;10.00;73.90
23147;DHT22;11742;53.532;-1.478;2023-04-03T01:57:39;9.90;73.80
23147;DHT22;11742;53.532;-1.478;2023-04-03T02:00:24;9.90;73.80
23147;DHT22;11742;53.532;-1.478;2023-04-03T02:03:08;9.90;73.80
23147;DHT22;11742;53.532;-1.478;2023-04-03T02:05:52;9.80;73.80
23147;DHT22;11742;53.532;-1.478;2023-04-03T02:08:36;9.80;73.80
23147;DHT22;11742;53.532;-1.478;2023-04-03T02:11:21;9.70;73.70
23147;DHT22;11742;53.532;-1.478;2023-04-03T02:14:05;9.70;73.80
23147;DHT22;11742;53.532;-1.478;2023-04-03T02:16:49;9.60;73.80
23147;DHT22;11742;53.532;-1.478;2023-04-03T02:19:33;9.60;73.80
23147;DHT22;11742;53.532;-1.478;2023-04-03T02:22:18;9.50;73.70
23147;DHT22;11742;53.532;-1.478;2023-04-03T02:25:03;9.50;73.70
23147;DHT22;11742;53.532;-1.478;2023-04-03T02:27:47;9.50;73.80
23147;DHT22;11742;53.532;-1.478;2023-04-03T02:30:31;9.50;73.80
23147;DHT22;11742;53.532;-1.478;2023-04-03T02:33:15;9.40;73.80
23147;DHT22;11742;53.532;-1.478;2023-04-03T02:35:59;9.40;73.80
23147;DHT22;11742;53.532;-1.478;2023-04-03T02:38:43;9.30;73.80
23147;DHT22;11742;53.532;-1.478;2023-04-03T02:41:28;9.30;73.80
23147;DHT22;11742;53.532;-1.478;2023-04-03T02:44:18;9.30;73.80
23147;DHT22;11742;53.532;-1.478;2023-04-03T02:47:02;9.20;73.80
23147;DHT22;11742;53.532;-1.478;2023-04-03T02:49:47;9.20;73.80
23147;DHT22;11742;53.532;-1.478;2023-04-03T02:52:31;9.10;73.80
23147;DHT22;11742;53.532;-1.478;2023-04-03T02:55:15;9.10;73.80
23147;DHT22;11742;53.532;-1.478;2023-04-03T02:58:00;9.10;73.90
23147;DHT22;11742;53.532;-1.478;2023-04-03T03:00:44;9.00;73.80
23147;DHT22;11742;53.532;-1.478;2023-04-03T03:03:28;9.00;73.90
23147;DHT22;11742;53.532;-1.478;2023-04-03T03:06:17;8.90;73.80
23147;DHT22;11742;53.532;-1.478;2023-04-03T03:09:01;8.90;73.80
23147;DHT22;11742;53.532;-1.478;2023-04-03T03:11:47;8.90;73.90
23147;DHT22;11742;53.532;-1.478;2023-04-03T03:14:31;8.80;73.80
23147;DHT22;11742;53.532;-1.478;2023-04-03T03:17:16;8.80;73.80
23147;DHT22;11742;53.532;-1.478;2023-04-03T03:20:00;8.80;73.80
23147;DHT22;11742;53.532;-1.478;2023-04-03T03:22:44;8.70;73.80
23147;DHT22;11742;53.532;-1.478;2023-04-03T03:25:28;8.70;73.80
23147;DHT22;11742;53.532;-1.478;2023-04-03T03:28:13;8.60;73.70
23147;DHT22;11742;53.532;-1.478;2023-04-03T03:30:58;8.60;73.70
23147;DHT22;11742;53.532;-1.478;2023-04-03T03:33:42;8.60;73.70
23147;DHT22;11742;53.532;-1.478;2023-04-03T03:36:27;8.60;73.80
23147;DHT22;11742;53.532;-1.478;2023-04-03T03:39:11;8.50;73.80
23147;DHT22;11742;53.532;-1.478;2023-04-03T03:41:55;8.50;73.80
23147;DHT22;11742;53.532;-1.478;2023-04-03T03:44:39;8.40;73.70
23147;DHT22;11742;53.532;-1.478;2023-04-03T03:47:24;8.40;73.80
23147;DHT22;11742;53.532;-1.478;2023-04-03T03:50:09;8.40;73.80
23147;DHT22;11742;53.532;-1.478;2023-04-03T03:52:53;8.30;73.80
23147;DHT22;11742;53.532;-1.478;2023-04-03T03:55:37;8.30;73.80
23147;DHT22;11742;53.532;-1.478;2023-04-03T03:58:21;8.20;73.80
23147;DHT22;11742;53.532;-1.478;2023-04-03T04:01:06;8.20;73.80
23147;DHT22;11742;53.532;-1.478;2023-04-03T04:03:50;8.20;73.80
23147;DHT22;11742;53.532;-1.478;2023-04-03T04:06:34;8.10;73.80
23147;DHT22;11742;53.532;-1.478;2023-04-03T04:09:19;8.10;73.80
23147;DHT22;11742;53.532;-1.478;2023-04-03T04:12:03;8.10;73.80
23147;DHT22;11742;53.532;-1.478;2023-04-03T04:14:47;8.10;73.90
23147;DHT22;11742;53.532;-1.478;2023-04-03T04:17:31;8.00;73.80
23147;DHT22;11742;53.532;-1.478;2023-04-03T04:20:16;8.00;73.90
23147;DHT22;11742;53.532;-1.478;2023-04-03T04:23:00;7.90;73.80
23147;DHT22;11742;53.532;-1.478;2023-04-03T04:25:47;7.90;73.90
23147;DHT22;11742;53.532;-1.478;2023-04-03T04:28:32;7.90;73.90
23147;DHT22;11742;53.532;-1.478;2023-04-03T04:31:16;7.90;74.00
23147;DHT22;11742;53.532;-1.478;2023-04-03T04:34:00;7.80;74.00
23147;DHT22;11742;53.532;-1.478;2023-04-03T04:36:45;7.80;74.00
23147;DHT22;11742;53.532;-1.478;2023-04-03T04:39:29;7.70;73.90
23147;DHT22;11742;53.532;-1.478;2023-04-03T04:42:13;7.70;73.90
23147;DHT22;11742;53.532;-1.478;2023-04-03T04:44:57;7.70;73.90
23147;DHT22;11742;53.532;-1.478;2023-04-03T04:47:42;7.60;73.90
23147;DHT22;11742;53.532;-1.478;2023-04-03T04:50:26;7.60;73.90
23147;DHT22;11742;53.532;-1.478;2023-04-03T04:53:10;7.50;73.90
23147;DHT22;11742;53.532;-1.478;2023-04-03T04:55:54;7.50;74.00
23147;DHT22;11742;53.532;-1.478;2023-04-03T04:58:39;7.50;74.00
23147;DHT22;11742;53.532;-1.478;2023-04-03T05:01:23;7.50;74.00
23147;DHT22;11742;53.532;-1.478;2023-04-03T05:04:07;7.40;74.00
23147;DHT22;11742;53.532;-1.478;2023-04-03T05:06:51;7.40;74.00
23147;DHT22;11742;53.532;-1.478;2023-04-03T05:09:36;7.40;74.00
23147;DHT22;11742;53.532;-1.478;2023-04-03T05:12:20;7.40;74.00
23147;DHT22;11742;53.532;-1.478;2023-04-03T05:15:04;7.30;74.10
23147;DHT22;11742;53.532;-1.478;2023-04-03T05:17:49;7.30;74.00
23147;DHT22;11742;53.532;-1.478;2023-04-03T05:20:34;7.30;74.10
23147;DHT22;11742;53.532;-1.478;2023-04-03T05:23:18;7.20;74.00
23147;DHT22;11742;53.532;-1.478;2023-04-03T05:26:03;7.20;74.10
23147;DHT22;11742;53.532;-1.478;2023-04-03T05:28:47;7.20;74.10
23147;DHT22;11742;53.532;-1.478;2023-04-03T05:31:31;7.10;74.10
23147;DHT22;11742;53.532;-1.478;2023-04-03T05:34:15;7.10;73.30
23147;DHT22;11742;53.532;-1.478;2023-04-03T05:36:59;7.00;74.00
23147;DHT22;11742;53.532;-1.478;2023-04-03T05:39:44;7.00;74.10
23147;DHT22;11742;53.532;-1.478;2023-04-03T05:42:28;7.00;74.10
23147;DHT22;11742;53.532;-1.478;2023-04-03T05:45:12;7.00;74.20
23147;DHT22;11742;53.532;-1.478;2023-04-03T05:47:56;7.00;74.20
23147;DHT22;11742;53.532;-1.478;2023-04-03T05:50:41;6.90;74.10
23147;DHT22;11742;53.532;-1.478;2023-04-03T05:53:27;6.90;74.20
23147;DHT22;11742;53.532;-1.478;2023-04-03T05:56:12;6.90;74.20
23147;DHT22;11742;53.532;-1.478;2023-04-03T05:58:56;6.80;74.20
23147;DHT22;11742;53.532;-1.478;2023-04-03T06:01:41;6.80;74.20
23147;DHT22;11742;53.532;-1.478;2023-04-03T06:04:25;6.80;74.30
23147;DHT22;11742;53.532;-1.478;2023-04-03T06:07:14;6.80;74.20
23147;DHT22;11742;53.532;-1.478;2023-04-03T06:09:59;6.80;74.30
23147;DHT22;11742;53.532;-1.478;2023-04-03T06:12:45;6.70;74.30
23147;DHT22;11742;53.532;-1.478;2023-04-03T06:15:29;6.70;74.30
23147;DHT22;11742;53.532;-1.478;2023-04-03T06:18:13;6.70;74.30
23147;DHT22;11742;53.532;-1.478;2023-04-03T06:20:58;6.70;74.40
23147;DHT22;11742;53.532;-1.478;2023-04-03T06:23:42;6.70;74.40
23147;DHT22;11742;53.532;-1.478;2023-04-03T06:26:26;6.70;74.40
23147;DHT22;11742;53.532;-1.478;2023-04-03T06:29:11;6.70;74.40
23147;DHT22;11742;53.532;-1.478;2023-04-03T06:31:55;6.70;74.50
23147;DHT22;11742;53.532;-1.478;2023-04-03T06:34:40;6.70;74.50
23147;DHT22;11742;53.532;-1.478;2023-04-03T06:37:25;6.70;74.70
23147;DHT22;11742;53.532;-1.478;2023-04-03T06:40:19;6.70;74.80
23147;DHT22;11742;53.532;-1.478;2023-04-03T06:43:04;6.70;74.80
23147;DHT22;11742;53.532;-1.478;2023-04-03T06:45:49;6.70;74.80
23147;DHT22;11742;53.532;-1.478;2023-04-03T06:48:33;6.70;74.90
23147;DHT22;11742;53.532;-1.478;2023-04-03T06:51:19;6.70;75.00
23147;DHT22;11742;53.532;-1.478;2023-04-03T06:54:04;6.70;75.00
23147;DHT22;11742;53.532;-1.478;2023-04-03T06:56:48;6.70;75.00
23147;DHT22;11742;53.532;-1.478;2023-04-03T06:59:32;6.70;75.10
23147;DHT22;11742;53.532;-1.478;2023-04-03T07:02:16;6.80;75.10
23147;DHT22;11742;53.532;-1.478;2023-04-03T07:05:00;6.80;75.50
23147;DHT22;11742;53.532;-1.478;2023-04-03T07:07:44;6.80;75.20
23147;DHT22;11742;53.532;-1.478;2023-04-03T07:10:29;6.80;75.40
23147;DHT22;11742;53.532;-1.478;2023-04-03T07:13:13;6.80;75.40
23147;DHT22;11742;53.532;-1.478;2023-04-03T07:15:59;6.80;75.50
23147;DHT22;11742;53.532;-1.478;2023-04-03T07:18:44;6.90;75.60
23147;DHT22;11742;53.532;-1.478;2023-04-03T07:21:29;6.90;75.60
23147;DHT22;11742;53.532;-1.478;2023-04-03T07:24:13;6.90;75.70
23147;DHT22;11742;53.532;-1.478;2023-04-03T07:26:57;6.90;75.80
23147;DHT22;11742;53.532;-1.478;2023-04-03T07:29:41;7.00;76.10
23147;DHT22;11742;53.532;-1.478;2023-04-03T07:32:26;7.00;76.20
23147;DHT22;11742;53.532;-1.478;2023-04-03T07:35:11;7.00;76.40
23147;DHT22;11742;53.532;-1.478;2023-04-03T07:37:55;7.10;76.70
23147;DHT22;11742;53.532;-1.478;2023-04-03T07:40:39;7.10;76.90
23147;DHT22;11742;53.532;-1.478;2023-04-03T07:43:23;7.10;77.10
23147;DHT22;11742;53.532;-1.478;2023-04-03T07:46:09;7.20;77.50
23147;DHT22;11742;53.532;-1.478;2023-04-03T07:48:53;7.30;77.90
23147;DHT22;11742;53.532;-1.478;2023-04-03T07:51:38;7.30;78.10
23147;DHT22;11742;53.532;-1.478;2023-04-03T07:54:22;7.40;78.40
23147;DHT22;11742;53.532;-1.478;2023-04-03T07:57:06;7.40;78.70
23147;DHT22;11742;53.532;-1.478;2023-04-03T07:59:50;7.50;78.70
23147;DHT22;11742;53.532;-1.478;2023-04-03T08:02:35;7.60;78.60
23147;DHT22;11742;53.532;-1.478;2023-04-03T08:05:20;7.60;78.60
23147;DHT22;11742;53.532;-1.478;2023-04-03T08:08:05;7.70;78.90
23147;DHT22;11742;53.532;-1.478;2023-04-03T08:10:50;7.80;79.10
23147;DHT22;11742;53.532;-1.478;2023-04-03T08:13:35;7.90;79.30
23147;DHT22;11742;53.532;-1.478;2023-04-03T08:16:20;8.00;79.50
23147;DHT22;11742;53.532;-1.478;2023-04-03T08:19:04;8.10;79.90
23147;DHT22;11742;53.532;-1.478;2023-04-03T08:21:49;8.20;80.10
23147;DHT22;11742;53.532;-1.478;2023-04-03T08:24:33;8.30;80.60
23147;DHT22;11742;53.532;-1.478;2023-04-03T08:27:18;8.40;81.00
23147;DHT22;11742;53.532;-1.478;2023-04-03T08:30:02;8.50;81.40
23147;DHT22;11742;53.532;-1.478;2023-04-03T08:32:48;8.50;81.80
23147;DHT22;11742;53.532;-1.478;2023-04-03T08:35:32;8.70;82.20
23147;DHT22;11742;53.532;-1.478;2023-04-03T08:38:16;8.70;82.60
23147;DHT22;11742;53.532;-1.478;2023-04-03T08:41:04;8.90;83.00
23147;DHT22;11742;53.532;-1.478;2023-04-03T08:43:56;9.00;83.30
23147;DHT22;11742;53.532;-1.478;2023-04-03T08:49:45;9.20;83.70
23147;DHT22;11742;53.532;-1.478;2023-04-03T08:58:29;9.60;84.00
23147;DHT22;11742;53.532;-1.478;2023-04-03T09:01:24;9.70;84.00
23147;DHT22;11742;53.532;-1.478;2023-04-03T09:04:14;9.80;83.90
23147;DHT22;11742;53.532;-1.478;2023-04-03T09:07:02;9.90;83.90
23147;DHT22;11742;53.532;-1.478;2023-04-03T09:09:48;10.00;83.80
23147;DHT22;11742;53.532;-1.478;2023-04-03T09:12:37;10.10;83.70
23147;DHT22;11742;53.532;-1.478;2023-04-03T09:15:23;10.20;83.50
23147;DHT22;11742;53.532;-1.478;2023-04-03T09:18:13;10.30;83.20
23147;DHT22;11742;53.532;-1.478;2023-04-03T09:23:58;10.50;82.60
23147;DHT22;11742;53.532;-1.478;2023-04-03T09:26:51;10.50;82.30
23147;DHT22;11742;53.532;-1.478;2023-04-03T09:29:41;10.60;82.10
23147;DHT22;11742;53.532;-1.478;2023-04-03T09:32:31;10.70;82.00
23147;DHT22;11742;53.532;-1.478;2023-04-03T09:35:18;10.70;81.90
23147;DHT22;11742;53.532;-1.478;2023-04-03T09:41:07;10.90;81.80
23147;DHT22;11742;53.532;-1.478;2023-04-03T09:43:53;10.90;81.60
23147;DHT22;11742;53.532;-1.478;2023-04-03T09:46:38;11.00;81.50
23147;DHT22;11742;53.532;-1.478;2023-04-03T09:49:23;11.10;81.40
23147;DHT22;11742;53.532;-1.478;2023-04-03T09:52:18;11.10;81.30
23147;DHT22;11742;53.532;-1.478;2023-04-03T09:55:06;11.20;81.20
23147;DHT22;11742;53.532;-1.478;2023-04-03T09:57:51;11.20;81.10
23147;DHT22;11742;53.532;-1.478;2023-04-03T10:00:39;11.30;81.20
23147;DHT22;11742;53.532;-1.478;2023-04-03T10:03:25;11.40;81.30
23147;DHT22;11742;53.532;-1.478;2023-04-03T10:06:23;11.40;81.30
23147;DHT22;11742;53.532;-1.478;2023-04-03T10:09:18;11.50;81.40
23147;DHT22;11742;53.532;-1.478;2023-04-03T10:12:04;11.60;81.30
23147;DHT22;11742;53.532;-1.478;2023-04-03T10:20:42;11.80;81.40
23147;DHT22;11742;53.532;-1.478;2023-04-03T10:23:40;11.90;81.40
23147;DHT22;11742;53.532;-1.478;2023-04-03T10:26:32;12.00;81.40
23147;DHT22;11742;53.532;-1.478;2023-04-03T10:29:29;12.10;81.50
23147;DHT22;11742;53.532;-1.478;2023-04-03T10:35:08;12.30;81.60
23147;DHT22;11742;53.532;-1.478;2023-04-03T10:38:03;12.40;81.60
23147;DHT22;11742;53.532;-1.478;2023-04-03T10:41:00;12.50;81.60
23147;DHT22;11742;53.532;-1.478;2023-04-03T10:43:54;12.60;81.50
23147;DHT22;11742;53.532;-1.478;2023-04-03T10:52:20;12.90;81.20
23147;DHT22;11742;53.532;-1.478;2023-04-03T10:58:13;13.00;80.70
23147;DHT22;11742;53.532;-1.478;2023-04-03T11:01:06;13.10;80.80
23147;DHT22;11742;53.532;-1.478;2023-04-03T11:03:53;13.20;80.90
23147;DHT22;11742;53.532;-1.478;2023-04-03T11:06:52;13.30;80.90
23147;DHT22;11742;53.532;-1.478;2023-04-03T11:09:41;13.40;81.00
23147;DHT22;11742;53.532;-1.478;2023-04-03T11:15:15;13.60;81.00
23147;DHT22;11742;53.532;-1.478;2023-04-03T11:18:08;13.70;81.10
23147;DHT22;11742;53.532;-1.478;2023-04-03T11:20:57;13.70;81.00
23147;DHT22;11742;53.532;-1.478;2023-04-03T11:23:42;13.80;80.90
23147;DHT22;11742;53.532;-1.478;2023-04-03T11:26:29;13.90;80.70
23147;DHT22;11742;53.532;-1.478;2023-04-03T11:29:18;14.00;80.60
23147;DHT22;11742;53.532;-1.478;2023-04-03T11:34:50;14.10;80.30
23147;DHT22;11742;53.532;-1.478;2023-04-03T11:37:38;14.20;80.40
23147;DHT22;11742;53.532;-1.478;2023-04-03T11:40:42;14.20;80.30
23147;DHT22;11742;53.532;-1.478;2023-04-03T11:43:31;14.30;80.30
23147;DHT22;11742;53.532;-1.478;2023-04-03T11:46:15;14.40;80.30
23147;DHT22;11742;53.532;-1.478;2023-04-03T11:49:02;14.50;80.30
23147;DHT22;11742;53.532;-1.478;2023-04-03T11:51:47;14.50;80.30
23147;DHT22;11742;53.532;-1.478;2023-04-03T11:54:35;14.60;80.30
23147;DHT22;11742;53.532;-1.478;2023-04-03T12:03:33;14.90;80.20
23147;DHT22;11742;53.532;-1.478;2023-04-03T12:09:56;15.10;80.30
23147;DHT22;11742;53.532;-1.478;2023-04-03T12:12:29;15.10;80.20
23147;DHT22;11742;53.532;-1.478;2023-04-03T12:15:22;15.20;80.30
23147;DHT22;11742;53.532;-1.478;2023-04-03T12:21:10;15.40;80.40
23147;DHT22;11742;53.532;-1.478;2023-04-03T12:26:50;15.50;80.40
23147;DHT22;11742;53.532;-1.478;2023-04-03T12:29:37;15.60;80.30
23147;DHT22;11742;53.532;-1.478;2023-04-03T12:35:24;15.80;80.00
23147;DHT22;11742;53.532;-1.478;2023-04-03T12:47:29;16.10;79.50
23147;DHT22;11742;53.532;-1.478;2023-04-03T12:53:25;16.20;79.30
23147;DHT22;11742;53.532;-1.478;2023-04-03T12:56:29;16.30;79.30
23147;DHT22;11742;53.532;-1.478;2023-04-03T12:59:21;16.40;79.20
23147;DHT22;11742;53.532;-1.478;2023-04-03T13:02:10;16.50;79.20
23147;DHT22;11742;53.532;-1.478;2023-04-03T13:05:04;16.50;78.70
23147;DHT22;11742;53.532;-1.478;2023-04-03T13:08:10;16.60;78.30
23147;DHT22;11742;53.532;-1.478;2023-04-03T13:11:03;16.70;78.30
23147;DHT22;11742;53.532;-1.478;2023-04-03T13:14:21;16.70;78.40
23147;DHT22;11742;53.532;-1.478;2023-04-03T13:19:43;16.90;77.90
23147;DHT22;11742;53.532;-1.478;2023-04-03T13:22:34;16.90;77.90
23147;DHT22;11742;53.532;-1.478;2023-04-03T13:25:23;17.00;77.60
23147;DHT22;11742;53.532;-1.478;2023-04-03T13:28:10;17.00;77.30
23147;DHT22;11742;53.532;-1.478;2023-04-03T13:31:01;17.10;77.40
23147;DHT22;11742;53.532;-1.478;2023-04-03T13:33:54;17.10;77.50
23147;DHT22;11742;53.532;-1.478;2023-04-03T13:36:40;17.20;77.00
23147;DHT22;11742;53.532;-1.478;2023-04-03T13:39:28;17.20;76.00
23147;DHT22;11742;53.532;-1.478;2023-04-03T13:42:20;17.30;74.70
23147;DHT22;11742;53.532;-1.478;2023-04-03T13:47:53;17.40;74.00
23147;DHT22;11742;53.532;-1.478;2023-04-03T13:53:41;17.50;72.80
23147;DHT22;11742;53.532;-1.478;2023-04-03T13:56:33;17.50;71.50
23147;DHT22;11742;53.532;-1.478;2023-04-03T13:59:30;17.60;71.20
23147;DHT22;11742;53.532;-1.478;2023-04-03T14:02:33;17.60;71.70
23147;DHT22;11742;53.532;-1.478;2023-04-03T14:05:17;17.70;71.60
23147;DHT22;11742;53.532;-1.478;2023-04-03T14:08:05;17.80;71.00
23147;DHT22;11742;53.532;-1.478;2023-04-03T14:10:50;17.80;71.20
23147;DHT22;11742;53.532;-1.478;2023-04-03T14:13:35;17.90;71.00
23147;DHT22;11742;53.532;-1.478;2023-04-03T14:16:21;18.00;71.50
23147;DHT22;11742;53.532;-1.478;2023-04-03T14:19:05;18.00;72.30
23147;DHT22;11742;53.532;-1.478;2023-04-03T14:21:51;18.00;72.00
23147;DHT22;11742;53.532;-1.478;2023-04-03T14:24:36;18.10;70.90
23147;DHT22;11742;53.532;-1.478;2023-04-03T14:27:21;18.10;71.40
23147;DHT22;11742;53.532;-1.478;2023-04-03T14:30:07;18.20;71.60
23147;DHT22;11742;53.532;-1.478;2023-04-03T14:32:52;18.20;71.00
23147;DHT22;11742;53.532;-1.478;2023-04-03T14:35:36;18.30;71.00
23147;DHT22;11742;53.532;-1.478;2023-04-03T14:38:25;18.30;69.50
23147;DHT22;11742;53.532;-1.478;2023-04-03T14:41:13;18.40;69.70
23147;DHT22;11742;53.532;-1.478;2023-04-03T14:43:58;18.40;69.90
23147;DHT22;11742;53.532;-1.478;2023-04-03T14:46:44;18.50;69.00
23147;DHT22;11742;53.532;-1.478;2023-04-03T14:49:28;18.50;70.10
23147;DHT22;11742;53.532;-1.478;2023-04-03T14:52:20;18.60;70.80
23147;DHT22;11742;53.532;-1.478;2023-04-03T14:55:05;18.60;70.10
23147;DHT22;11742;53.532;-1.478;2023-04-03T14:57:50;18.70;69.80
23147;DHT22;11742;53.532;-1.478;2023-04-03T15:00:35;18.70;69.80
23147;DHT22;11742;53.532;-1.478;2023-04-03T15:03:20;18.80;70.80
23147;DHT22;11742;53.532;-1.478;2023-04-03T15:06:05;18.80;70.20
23147;DHT22;11742;53.532;-1.478;2023-04-03T15:08:49;18.90;69.10
23147;DHT22;11742;53.532;-1.478;2023-04-03T15:11:34;18.90;69.80
23147;DHT22;11742;53.532;-1.478;2023-04-03T15:14:18;19.00;70.20
23147;DHT22;11742;53.532;-1.478;2023-04-03T15:17:03;19.00;69.90
23147;DHT22;11742;53.532;-1.478;2023-04-03T15:19:48;19.00;69.80
23147;DHT22;11742;53.532;-1.478;2023-04-03T15:22:32;19.10;68.90
23147;DHT22;11742;53.532;-1.478;2023-04-03T15:25:17;19.10;67.80
23147;DHT22;11742;53.532;-1.478;2023-04-03T15:28:02;19.10;68.00
23147;DHT22;11742;53.532;-1.478;2023-04-03T15:30:47;19.20;68.80
23147;DHT22;11742;53.532;-1.478;2023-04-03T15:33:31;19.20;68.40
23147;DHT22;11742;53.532;-1.478;2023-04-03T15:36:16;19.30;68.70
23147;DHT22;11742;53.532;-1.478;2023-04-03T15:39:00;19.20;68.90
23147;DHT22;11742;53.532;-1.478;2023-04-03T15:41:44;19.30;69.30
23147;DHT22;11742;53.532;-1.478;2023-04-03T15:44:29;19.30;69.20
23147;DHT22;11742;53.532;-1.478;2023-04-03T15:47:13;19.40;68.20
23147;DHT22;11742;53.532;-1.478;2023-04-03T15:49:57;19.40;67.90
23147;DHT22;11742;53.532;-1.478;2023-04-03T15:52:42;19.40;67.90
23147;DHT22;11742;53.532;-1.478;2023-04-03T15:55:26;19.50;69.00
23147;DHT22;11742;53.532;-1.478;2023-04-03T15:58:11;19.50;68.50
23147;DHT22;11742;53.532;-1.478;2023-04-03T16:00:55;19.50;68.50
23147;DHT22;11742;53.532;-1.478;2023-04-03T16:03:40;19.60;68.90
23147;DHT22;11742;53.532;-1.478;2023-04-03T16:06:29;19.60;69.30
23147;DHT22;11742;53.532;-1.478;2023-04-03T16:09:14;19.60;67.90
23147;DHT22;11742;53.532;-1.478;2023-04-03T16:11:59;19.60;66.80
23147;DHT22;11742;53.532;-1.478;2023-04-03T16:14:44;19.60;68.10
23147;DHT22;11742;53.532;-1.478;2023-04-03T16:17:28;19.70;67.50
23147;DHT22;11742;53.532;-1.478;2023-04-03T16:20:14;19.70;67.60
23147;DHT22;11742;53.532;-1.478;2023-04-03T16:22:58;19.70;67.80
23147;DHT22;11742;53.532;-1.478;2023-04-03T16:25:43;19.70;68.10
23147;DHT22;11742;53.532;-1.478;2023-04-03T16:28:29;19.70;68.20
23147;DHT22;11742;53.532;-1.478;2023-04-03T16:31:14;19.80;67.70
23147;DHT22;11742;53.532;-1.478;2023-04-03T16:33:58;19.70;67.80
23147;DHT22;11742;53.532;-1.478;2023-04-03T16:36:44;19.80;67.20
23147;DHT22;11742;53.532;-1.478;2023-04-03T16:39:28;19.80;67.50
23147;DHT22;11742;53.532;-1.478;2023-04-03T16:42:12;19.80;67.50
23147;DHT22;11742;53.532;-1.478;2023-04-03T16:44:57;19.80;67.90
23147;DHT22;11742;53.532;-1.478;2023-04-03T16:47:42;19.70;68.00
23147;DHT22;11742;53.532;-1.478;2023-04-03T16:50:27;19.80;67.10
23147;DHT22;11742;53.532;-1.478;2023-04-03T16:53:11;19.80;67.50
23147;DHT22;11742;53.532;-1.478;2023-04-03T16:55:57;19.80;67.90
23147;DHT22;11742;53.532;-1.478;2023-04-03T16:58:41;19.80;68.00
23147;DHT22;11742;53.532;-1.478;2023-04-03T17:01:25;19.70;68.00
23147;DHT22;11742;53.532;-1.478;2023-04-03T17:04:10;19.70;67.70
23147;DHT22;11742;53.532;-1.478;2023-04-03T17:06:54;19.70;68.00
23147;DHT22;11742;53.532;-1.478;2023-04-03T17:09:38;19.70;68.00
23147;DHT22;11742;53.532;-1.478;2023-04-03T17:12:22;19.70;68.00
23147;DHT22;11742;53.532;-1.478;2023-04-03T17:15:07;19.70;68.00
23147;DHT22;11742;53.532;-1.478;2023-04-03T17:17:51;19.70;68.00
23147;DHT22;11742;53.532;-1.478;2023-04-03T17:20:36;19.70;68.10
23147;DHT22;11742;53.532;-1.478;2023-04-03T17:23:22;19.60;67.90
23147;DHT22;11742;53.532;-1.478;2023-04-03T17:26:07;19.50;62.00
23147;DHT22;11742;53.532;-1.478;2023-04-03T17:28:51;19.40;64.50
23147;DHT22;11742;53.532;-1.478;2023-04-03T17:31:35;19.30;65.50
23147;DHT22;11742;53.532;-1.478;2023-04-03T17:34:19;19.30;66.00
23147;DHT22;11742;53.532;-1.478;2023-04-03T17:37:04;19.20;66.60
23147;DHT22;11742;53.532;-1.478;2023-04-03T17:39:49;19.20;66.90
23147;DHT22;11742;53.532;-1.478;2023-04-03T17:42:33;19.20;66.90
23147;DHT22;11742;53.532;-1.478;2023-04-03T17:45:17;19.20;66.50
23147;DHT22;11742;53.532;-1.478;2023-04-03T17:48:01;19.10;66.70
23147;DHT22;11742;53.532;-1.478;2023-04-03T17:50:46;19.10;67.30
23147;DHT22;11742;53.532;-1.478;2023-04-03T17:53:30;19.00;67.20
23147;DHT22;11742;53.532;-1.478;2023-04-03T17:56:18;19.00;67.60
23147;DHT22;11742;53.532;-1.478;2023-04-03T17:59:03;19.00;67.10
23147;DHT22;11742;53.532;-1.478;2023-04-03T18:01:47;19.00;67.10
23147;DHT22;11742;53.532;-1.478;2023-04-03T18:04:32;19.00;67.00
23147;DHT22;11742;53.532;-1.478;2023-04-03T18:07:16;18.90;66.90
23147;DHT22;11742;53.532;-1.478;2023-04-03T18:10:00;18.90;66.70
23147;DHT22;11742;53.532;-1.478;2023-04-03T18:12:47;18.80;66.80
23147;DHT22;11742;53.532;-1.478;2023-04-03T18:15:31;18.80;66.90
23147;DHT22;11742;53.532;-1.478;2023-04-03T18:18:16;18.70;67.20
23147;DHT22;11742;53.532;-1.478;2023-04-03T18:21:00;18.70;67.30
23147;DHT22;11742;53.532;-1.478;2023-04-03T18:23:51;18.70;67.10
23147;DHT22;11742;53.532;-1.478;2023-04-03T18:26:36;18.60;67.60
23147;DHT22;11742;53.532;-1.478;2023-04-03T18:29:20;18.60;67.40
23147;DHT22;11742;53.532;-1.478;2023-04-03T18:32:05;18.60;67.70
23147;DHT22;11742;53.532;-1.478;2023-04-03T18:34:50;18.50;67.70
23147;DHT22;11742;53.532;-1.478;2023-04-03T18:37:34;18.50;67.70
23147;DHT22;11742;53.532;-1.478;2023-04-03T18:40:18;18.40;67.80